createdAt,value
2022-10-05T00:00:14.386Z,8.12
2022-10-05T00:02:42.392Z,8.15
2022-10-05T00:05:31.475Z,8.14
2022-10-05T00:08:10.882Z,8.18
2022-10-05T00:10:41.430Z,8.11
2022-10-05T00:13:25.680Z,8.12
2022-10-05T00:16:03.190Z,8.07
2022-10-05T00:18:32.652Z,8.05
2022-10-05T00:21:00.341Z,7.89
2022-10-05T00:24:42.250Z,8.05
2022-10-05T00:27:33.255Z,8.02
2022-10-05T00:30:17.871Z,7.94
2022-10-05T00:33:38.235Z,8.04
2022-10-05T00:36:07.221Z,7.98
2022-10-05T00:38:34.473Z,7.92
2022-10-05T00:41:20.819Z,7.84
2022-10-05T00:43:58.600Z,7.83
2022-10-05T00:46:31.842Z,7.92
2022-10-05T00:49:29.868Z,7.89
2022-10-05T00:52:13.312Z,7.95
2022-10-05T00:54:53.475Z,7.77
2022-10-05T00:57:42.034Z,7.96
2022-10-05T01:00:13.216Z,7.94
2022-10-05T01:02:51.764Z,7.92
2022-10-05T01:05:43.153Z,7.85
2022-10-05T01:08:16.150Z,7.90
2022-10-05T01:11:08.542Z,7.78
2022-10-05T01:13:53.206Z,7.70
2022-10-05T01:17:01.103Z,7.78
2022-10-05T01:19:44.630Z,7.82
2022-10-05T01:22:24.806Z,7.88
2022-10-05T01:25:06.879Z,7.86
2022-10-05T01:27:49.013Z,7.84
2022-10-05T01:30:21.804Z,7.79
2022-10-05T01:32:55.186Z,7.78
2022-10-05T01:35:25.441Z,7.77
2022-10-05T01:38:14.552Z,7.72
2022-10-05T01:41:06.889Z,7.69
2022-10-05T01:43:35.336Z,7.79
2022-10-05T01:46:14.973Z,7.76
2022-10-05T01:48:59.193Z,7.74
2022-10-05T01:51:43.788Z,7.80
2022-10-05T01:54:30.535Z,7.73
2022-10-05T01:57:13.210Z,7.70
2022-10-05T02:00:07.794Z,7.70
2022-10-05T02:03:17.101Z,7.64
2022-10-05T02:06:04.810Z,7.62
2022-10-05T02:08:38.942Z,7.67
2022-10-05T02:11:09.608Z,7.63
2022-10-05T02:13:47.436Z,7.64
2022-10-05T02:16:31.099Z,7.62
2022-10-05T02:19:12.158Z,7.61
2022-10-05T02:21:47.547Z,7.47
2022-10-05T02:24:27.574Z,7.48
2022-10-05T02:26:56.839Z,7.55
2022-10-05T02:29:28.456Z,7.51
2022-10-05T02:32:02.442Z,7.45
2022-10-05T02:34:36.945Z,7.48
2022-10-05T02:37:36.198Z,7.53
2022-10-05T02:40:34.215Z,7.48
2022-10-05T02:43:20.810Z,7.44
2022-10-05T02:46:17.766Z,7.42
2022-10-05T02:49:00.345Z,7.42
2022-10-05T02:51:50.449Z,7.41
2022-10-05T02:54:41.660Z,7.34
2022-10-05T02:57:15.572Z,7.41
2022-10-05T03:00:00.242Z,7.24
2022-10-05T03:03:11.051Z,7.30
2022-10-05T03:05:48.557Z,7.39
2022-10-05T03:08:20.100Z,7.40
2022-10-05T03:11:22.770Z,7.39
2022-10-05T03:14:28.700Z,7.32
2022-10-05T03:17:44.270Z,7.35
2022-10-05T03:20:20.599Z,7.34
2022-10-05T03:22:52.195Z,7.32
2022-10-05T03:25:42.305Z,7.34
2022-10-05T03:28:39.115Z,7.32
2022-10-05T03:31:29.167Z,7.29
2022-10-05T03:35:03.347Z,6.96
2022-10-05T03:42:04.076Z,7.15
2022-10-05T03:44:57.463Z,7.24
2022-10-05T03:47:41.501Z,7.22
2022-10-05T03:50:12.258Z,7.29
2022-10-05T03:52:47.951Z,7.29
2022-10-05T03:55:43.197Z,7.32
2022-10-05T03:58:26.312Z,7.13
2022-10-05T04:00:59.346Z,7.13
2022-10-05T04:03:41.262Z,7.33
2022-10-05T04:06:35.350Z,7.20
2022-10-05T04:09:36.872Z,7.18
2022-10-05T04:12:17.744Z,7.32
2022-10-05T04:14:49.106Z,7.31
2022-10-05T04:17:23.956Z,7.03
2022-10-05T04:19:59.703Z,7.32
2022-10-05T04:22:50.586Z,7.18
2022-10-05T04:25:29.173Z,7.32
2022-10-05T04:28:38.468Z,7.20
2022-10-05T04:31:29.574Z,7.04
2022-10-05T04:34:10.315Z,7.14
2022-10-05T04:36:54.949Z,7.08
2022-10-05T04:39:51.460Z,7.06
2022-10-05T04:42:36.924Z,7.27
2022-10-05T04:45:37.223Z,7.29
2022-10-05T04:48:21.070Z,7.21
2022-10-05T04:51:14.693Z,7.35
2022-10-05T04:54:02.024Z,7.31
2022-10-05T04:57:22.561Z,7.38
2022-10-05T05:00:08.905Z,7.41
2022-10-05T05:02:50.455Z,7.43
2022-10-05T05:05:58.721Z,7.46
2022-10-05T05:08:26.372Z,7.46
2022-10-05T05:11:23.774Z,7.51
2022-10-05T05:14:02.249Z,7.50
2022-10-05T05:16:41.494Z,7.56
2022-10-05T05:19:52.064Z,7.57
2022-10-05T05:22:48.962Z,7.47
2022-10-05T05:25:39.895Z,7.55
2022-10-05T05:28:30.005Z,7.41
2022-10-05T05:31:11.182Z,7.63
2022-10-05T05:33:43.028Z,7.67
2022-10-05T05:36:28.578Z,7.68
2022-10-05T05:39:24.129Z,7.67
2022-10-05T05:42:01.597Z,7.49
2022-10-05T05:45:12.731Z,7.40
2022-10-05T05:47:46.162Z,7.38
2022-10-05T05:50:23.577Z,7.35
2022-10-05T05:54:00.171Z,7.49
2022-10-05T05:56:43.399Z,7.49
2022-10-05T05:59:16.790Z,7.40
2022-10-05T06:01:49.538Z,7.24
2022-10-05T06:04:31.923Z,7.15
2022-10-05T06:07:03.664Z,7.22
2022-10-05T06:10:21.853Z,7.56
2022-10-05T06:13:08.776Z,7.52
2022-10-05T06:15:45.161Z,7.42
2022-10-05T06:18:17.888Z,7.46
2022-10-05T06:21:15.238Z,7.56
2022-10-05T06:24:13.777Z,7.64
2022-10-05T06:27:22.322Z,7.67
2022-10-05T06:29:57.231Z,7.75
2022-10-05T06:32:51.082Z,7.65
2022-10-05T06:35:59.896Z,7.83
2022-10-05T06:39:02.938Z,7.89
2022-10-05T06:42:07.055Z,8.01
2022-10-05T06:45:27.887Z,8.14
2022-10-05T06:48:54.316Z,8.22
2022-10-05T06:52:06.316Z,8.36
2022-10-05T06:54:46.338Z,8.52
2022-10-05T06:57:33.654Z,8.58
2022-10-05T07:00:16.328Z,8.56
2022-10-05T07:02:56.214Z,8.69
2022-10-05T07:05:42.342Z,8.72
2022-10-05T07:08:30.172Z,8.53
2022-10-05T07:11:05.285Z,8.70
2022-10-05T07:14:36.253Z,8.53
2022-10-05T07:17:37.568Z,8.63
2022-10-05T07:20:23.659Z,8.65
2022-10-05T07:23:25.726Z,8.67
2022-10-05T07:26:01.917Z,8.53
2022-10-05T07:28:47.462Z,8.76
2022-10-05T07:31:40.686Z,8.77
2022-10-05T07:34:37.066Z,8.81
2022-10-05T07:37:55.137Z,8.80
2022-10-05T07:40:45.319Z,8.87
2022-10-05T07:43:45.187Z,9.02
2022-10-05T07:46:50.676Z,8.84
2022-10-05T07:49:19.110Z,8.99
2022-10-05T07:51:51.533Z,8.92
2022-10-05T07:54:42.986Z,8.95
2022-10-05T07:57:25.022Z,8.95
2022-10-05T08:00:06.474Z,8.95
2022-10-05T08:02:49.225Z,9.01
2022-10-05T08:05:33.363Z,9.02
2022-10-05T08:08:28.672Z,8.91
2022-10-05T08:11:01.487Z,9.04
2022-10-05T08:13:59.220Z,8.98
2022-10-05T08:16:35.482Z,8.75
2022-10-05T08:19:15.490Z,8.79
2022-10-05T08:21:52.518Z,8.59
2022-10-05T08:24:35.048Z,8.61
2022-10-05T08:27:10.597Z,8.55
2022-10-05T08:30:00.316Z,8.56
2022-10-05T08:32:45.481Z,8.63
2022-10-05T08:35:21.736Z,8.67
2022-10-05T08:37:50.262Z,8.71
2022-10-05T08:40:43.367Z,8.42
2022-10-05T08:43:34.367Z,8.67
2022-10-05T08:46:14.663Z,8.64
2022-10-05T08:48:57.411Z,8.44
2022-10-05T08:51:33.333Z,8.48
2022-10-05T08:54:29.198Z,8.46
2022-10-05T08:57:17.739Z,8.50
2022-10-05T08:59:48.309Z,8.57
2022-10-05T09:02:45.353Z,8.48
2022-10-05T09:05:26.510Z,8.33
2022-10-05T09:08:24.106Z,8.24
2022-10-05T09:11:09.934Z,8.42
2022-10-05T09:14:32.194Z,8.39
2022-10-05T09:17:38.505Z,8.43
2022-10-05T09:22:19.341Z,8.47
2022-10-05T09:23:44.470Z,8.38
2022-10-05T09:26:32.095Z,8.65
2022-10-05T09:29:37.676Z,8.59
2022-10-05T09:32:33.046Z,8.94
2022-10-05T09:35:19.469Z,9.12
2022-10-05T09:38:05.444Z,9.34
2022-10-05T09:40:48.493Z,9.56
2022-10-05T09:43:52.963Z,9.62
2022-10-05T09:46:40.669Z,9.72
2022-10-05T09:49:32.711Z,9.71
2022-10-05T09:52:41.400Z,9.49
2022-10-05T09:55:21.255Z,9.59
2022-10-05T09:58:14.521Z,9.81
2022-10-05T10:00:44.897Z,9.78
2022-10-05T10:03:45.130Z,9.69
2022-10-05T10:06:33.546Z,9.84
2022-10-05T10:09:18.811Z,9.80
2022-10-05T10:11:58.324Z,9.73
2022-10-05T10:15:24.253Z,9.63
2022-10-05T10:18:09.820Z,9.65
2022-10-05T10:21:15.256Z,9.44
2022-10-05T10:24:03.558Z,9.42
2022-10-05T10:26:48.878Z,9.48
2022-10-05T10:29:50.939Z,9.26
2022-10-05T10:32:33.557Z,9.27
2022-10-05T10:35:14.512Z,9.44
2022-10-05T10:38:09.553Z,9.70
2022-10-05T10:41:13.962Z,9.81
2022-10-05T10:44:17.754Z,10.69
2022-10-05T10:47:23.034Z,11.13
2022-10-05T10:50:06.604Z,11.01
2022-10-05T10:52:54.487Z,10.62
2022-10-05T10:55:38.904Z,10.48
2022-10-05T10:58:37.025Z,10.28
2022-10-05T11:01:30.545Z,10.21
2022-10-05T11:04:38.269Z,10.03
2022-10-05T11:07:24.269Z,10.01
2022-10-05T11:10:14.381Z,9.83
2022-10-05T11:13:17.396Z,10.09
2022-10-05T11:16:22.230Z,10.06
2022-10-05T11:19:03.436Z,9.97
2022-10-05T11:21:40.530Z,10.01
2022-10-05T11:24:40.025Z,10.23
2022-10-05T11:27:08.645Z,10.36
2022-10-05T11:30:02.695Z,10.40
2022-10-05T11:33:01.426Z,10.67
2022-10-05T11:35:50.050Z,10.93
2022-10-05T11:38:46.558Z,10.87
2022-10-05T11:41:55.202Z,10.93
2022-10-05T11:45:00.127Z,10.71
2022-10-05T11:47:37.620Z,10.50
2022-10-05T11:50:06.724Z,10.68
2022-10-05T11:52:52.184Z,10.90
2022-10-05T11:55:26.915Z,11.70
2022-10-05T11:57:59.196Z,11.92
2022-10-05T12:00:47.427Z,12.10
2022-10-05T12:03:27.779Z,12.02
2022-10-05T12:06:13.698Z,11.63
2022-10-05T12:08:52.197Z,11.10
2022-10-05T12:11:46.237Z,10.63
2022-10-05T12:14:24.726Z,10.47
2022-10-05T12:17:00.962Z,10.28
2022-10-05T12:19:37.013Z,10.14
2022-10-05T12:22:15.738Z,10.21
2022-10-05T12:24:55.742Z,10.20
2022-10-05T12:27:28.537Z,9.99
2022-10-05T12:30:14.773Z,10.18
2022-10-05T12:33:13.050Z,10.15
2022-10-05T12:35:59.367Z,9.86
2022-10-05T12:41:36.916Z,9.38
2022-10-05T12:44:12.823Z,9.27
2022-10-05T12:47:04.849Z,9.38
2022-10-05T12:50:03.241Z,9.40
2022-10-05T12:53:08.227Z,9.25
2022-10-05T12:55:55.365Z,9.24
2022-10-05T12:59:07.298Z,9.51
2022-10-05T13:01:42.975Z,9.62
2022-10-05T13:04:38.631Z,9.38
2022-10-05T13:07:26.348Z,9.54
2022-10-05T13:13:15.265Z,9.33
2022-10-05T13:15:48.455Z,9.35
2022-10-05T13:18:23.994Z,9.53
2022-10-05T13:21:04.981Z,9.64
2022-10-05T13:23:40.267Z,9.70
2022-10-05T13:26:28.426Z,9.48
2022-10-05T13:29:22.523Z,9.61
2022-10-05T13:32:02.554Z,9.47
2022-10-05T13:34:51.626Z,9.40
2022-10-05T13:37:34.170Z,9.33
2022-10-05T13:40:21.945Z,9.15
2022-10-05T13:43:14.774Z,9.25
2022-10-05T13:46:05.305Z,9.20
2022-10-05T13:48:47.875Z,9.30
2022-10-05T13:51:28.592Z,9.35
2022-10-05T13:53:58.617Z,9.38
2022-10-05T13:56:31.368Z,9.29
2022-10-05T13:59:15.962Z,9.39
2022-10-05T14:01:55.788Z,9.36
2022-10-05T14:04:28.489Z,9.30
2022-10-05T14:06:56.940Z,9.12
2022-10-05T14:09:30.765Z,9.27
2022-10-05T14:12:04.687Z,9.25
2022-10-05T14:14:36.354Z,9.21
2022-10-05T14:17:13.577Z,9.21
2022-10-05T14:19:48.673Z,9.16
2022-10-05T14:22:25.199Z,9.08
2022-10-05T14:25:02.336Z,9.00
2022-10-05T14:27:33.868Z,8.89
2022-10-05T14:30:13.201Z,8.90
2022-10-05T14:32:54.022Z,8.84
2022-10-05T14:35:22.555Z,8.70
2022-10-05T14:37:56.324Z,8.69
2022-10-05T14:40:23.524Z,8.82
2022-10-05T14:42:52.261Z,8.80
2022-10-05T14:45:30.253Z,8.66
2022-10-05T14:48:00.498Z,8.71
2022-10-05T14:50:30.854Z,8.69
2022-10-05T14:53:03.794Z,8.69
2022-10-05T14:56:06.296Z,8.57
2022-10-05T14:59:07.254Z,8.62
2022-10-05T15:01:36.850Z,8.52
2022-10-05T15:04:27.871Z,8.61
2022-10-05T15:07:04.040Z,8.60
2022-10-05T15:09:50.399Z,8.60
2022-10-05T15:12:48.546Z,8.59
2022-10-05T15:15:57.235Z,8.64
2022-10-05T15:18:32.231Z,8.68
2022-10-05T15:21:06.528Z,8.69
2022-10-05T15:23:40.937Z,8.65
2022-10-05T15:26:40.895Z,8.42
2022-10-05T15:29:32.894Z,8.37
2022-10-05T15:32:19.231Z,8.37
2022-10-05T15:34:49.298Z,8.40
2022-10-05T15:37:33.229Z,8.32
2022-10-05T15:40:05.081Z,8.25
2022-10-05T15:42:43.196Z,8.30
2022-10-05T15:45:32.404Z,8.15
2022-10-05T15:48:20.915Z,8.09
2022-10-05T15:51:07.354Z,8.20
2022-10-05T15:53:52.471Z,8.19
2022-10-05T15:56:23.662Z,8.17
2022-10-05T15:59:25.933Z,8.15
2022-10-05T16:02:07.590Z,7.99
2022-10-05T16:05:04.486Z,8.17
2022-10-05T16:08:04.698Z,7.86
2022-10-05T16:10:37.606Z,8.36
2022-10-05T16:13:19.525Z,8.66
2022-10-05T16:15:55.251Z,8.50
2022-10-05T16:18:34.655Z,8.54
2022-10-05T16:21:51.825Z,8.70
2022-10-05T16:24:42.062Z,8.62
2022-10-05T16:27:54.483Z,8.64
2022-10-05T16:30:24.947Z,8.59
2022-10-05T16:33:16.072Z,8.52
2022-10-05T16:36:03.297Z,8.54
2022-10-05T16:38:47.090Z,8.46
2022-10-05T16:41:41.377Z,8.51
2022-10-05T16:44:34.629Z,8.55
2022-10-05T16:47:09.627Z,8.53
2022-10-05T16:50:04.450Z,8.56
2022-10-05T16:52:34.199Z,8.44
2022-10-05T16:55:12.501Z,8.41
2022-10-05T16:57:46.619Z,8.13
2022-10-05T17:00:22.246Z,8.35
2022-10-05T17:03:04.812Z,8.27
2022-10-05T17:06:04.159Z,8.30
2022-10-05T17:09:02.412Z,8.29
2022-10-05T17:11:58.065Z,8.19
2022-10-05T17:14:37.104Z,8.06
2022-10-05T17:17:25.841Z,8.02
2022-10-05T17:19:56.948Z,8.05
2022-10-05T17:22:33.201Z,8.12
2022-10-05T17:25:28.330Z,8.03
2022-10-05T17:28:15.417Z,8.20
2022-10-05T17:31:07.823Z,8.19
2022-10-05T17:34:14.391Z,8.22
2022-10-05T17:36:48.411Z,8.35
2022-10-05T17:39:24.164Z,8.22
2022-10-05T17:41:51.460Z,8.11
2022-10-05T17:44:25.086Z,8.23
2022-10-05T17:47:03.177Z,8.16
2022-10-05T17:50:18.682Z,8.28
2022-10-05T17:53:39.092Z,8.26
2022-10-05T17:56:06.582Z,8.20
2022-10-05T17:58:33.599Z,8.23
2022-10-05T18:01:01.204Z,8.16
2022-10-05T18:03:43.766Z,8.05
2022-10-05T18:06:28.541Z,7.92
2022-10-05T18:09:23.157Z,7.82
2022-10-05T18:12:18.094Z,7.83
2022-10-05T18:15:24.880Z,7.63
2022-10-05T18:18:01.068Z,7.72
2022-10-05T18:20:32.711Z,7.46
2022-10-05T18:23:04.074Z,7.69
2022-10-05T18:25:34.144Z,7.66
2022-10-05T18:28:22.623Z,7.49
2022-10-05T18:31:22.297Z,7.55
2022-10-05T18:34:16.477Z,7.40
2022-10-05T18:36:59.176Z,7.53
2022-10-05T18:39:41.745Z,7.49
2022-10-05T18:42:25.508Z,7.45
2022-10-05T18:45:26.400Z,7.41
2022-10-05T18:48:18.714Z,7.38
2022-10-05T18:50:55.157Z,7.33
2022-10-05T18:53:30.269Z,7.32
2022-10-05T18:56:20.741Z,7.26
2022-10-05T18:59:07.584Z,7.24
2022-10-05T19:02:05.920Z,7.04
2022-10-05T19:04:52.482Z,7.22
2022-10-05T19:08:02.770Z,7.14
2022-10-05T19:10:48.484Z,7.10
2022-10-05T19:13:28.114Z,7.09
2022-10-05T19:16:26.137Z,7.07
2022-10-05T19:19:08.092Z,7.06
2022-10-05T19:21:46.554Z,6.99
2022-10-05T19:24:13.975Z,7.03
2022-10-05T19:26:53.852Z,7.06
2022-10-05T19:29:24.032Z,7.14
2022-10-05T19:31:58.991Z,7.11
2022-10-05T19:34:33.040Z,7.26
2022-10-05T19:37:23.681Z,7.28
2022-10-05T19:40:07.262Z,7.30
2022-10-05T19:43:04.786Z,7.32
2022-10-05T19:45:43.514Z,7.35
2022-10-05T19:48:38.211Z,7.35
2022-10-05T19:51:18.292Z,7.25
2022-10-05T19:53:50.142Z,7.39
2022-10-05T19:56:26.260Z,7.26
2022-10-05T19:58:59.562Z,7.26
2022-10-05T20:01:34.358Z,7.26
2022-10-05T20:04:05.470Z,7.25
2022-10-05T20:06:33.978Z,7.39
2022-10-05T20:09:19.925Z,7.20
2022-10-05T20:11:53.481Z,7.36
2022-10-05T20:14:26.282Z,7.43
2022-10-05T20:17:32.603Z,7.38
2022-10-05T20:20:34.616Z,7.39
2022-10-05T20:23:28.180Z,7.37
2022-10-05T20:26:13.993Z,7.40
2022-10-05T20:28:44.732Z,7.53
2022-10-05T20:31:12.798Z,7.57
2022-10-05T20:34:08.497Z,7.54
2022-10-05T20:36:35.680Z,7.44
2022-10-05T20:39:03.087Z,7.53
2022-10-05T20:41:30.160Z,7.48
2022-10-05T20:43:57.491Z,7.41
2022-10-05T20:46:24.720Z,7.52
2022-10-05T20:48:54.143Z,7.29
2022-10-05T20:51:21.343Z,7.38
2022-10-05T20:53:48.763Z,7.26
2022-10-05T20:56:16.384Z,7.38
2022-10-05T20:58:45.923Z,7.27
2022-10-05T21:01:15.738Z,7.19
2022-10-05T21:03:43.796Z,7.36
2022-10-05T21:06:11.673Z,7.29
2022-10-05T21:08:39.868Z,7.29
2022-10-05T21:11:09.193Z,7.34
2022-10-05T21:13:43.112Z,7.35
2022-10-05T21:16:14.227Z,7.23
2022-10-05T21:18:49.013Z,7.26
2022-10-05T21:21:17.822Z,7.23
2022-10-05T21:23:47.113Z,7.41
2022-10-05T21:26:15.549Z,7.34
2022-10-05T21:28:43.856Z,7.33
2022-10-05T21:31:11.170Z,7.42
2022-10-05T21:33:40.537Z,7.23
2022-10-05T21:36:07.585Z,7.23
2022-10-05T21:38:34.808Z,7.41
2022-10-05T21:41:02.057Z,7.44
2022-10-05T21:43:29.869Z,7.34
2022-10-05T21:45:57.527Z,7.31
2022-10-05T21:48:26.296Z,7.46
2022-10-05T21:50:54.587Z,7.38
2022-10-05T21:53:27.135Z,7.38
2022-10-05T21:55:54.764Z,7.37
2022-10-05T21:58:23.001Z,7.48
2022-10-05T22:00:50.306Z,7.40
2022-10-05T22:03:20.401Z,7.32
2022-10-05T22:05:48.248Z,7.44
2022-10-05T22:08:22.572Z,7.45
2022-10-05T22:10:50.109Z,7.48
2022-10-05T22:13:17.874Z,7.37
2022-10-05T22:15:44.991Z,7.31
2022-10-05T22:18:17.462Z,7.37
2022-10-05T22:20:46.315Z,7.45
2022-10-05T22:23:13.840Z,7.46
2022-10-05T22:25:41.850Z,7.40
2022-10-05T22:28:12.303Z,7.26
2022-10-05T22:30:40.080Z,7.25
2022-10-05T22:33:07.374Z,7.31
2022-10-05T22:35:36.057Z,7.43
2022-10-05T22:38:04.167Z,7.45
2022-10-05T22:40:31.633Z,7.44
2022-10-05T22:43:00.743Z,7.43
2022-10-05T22:45:32.280Z,7.42
2022-10-05T22:47:59.631Z,7.50
2022-10-05T22:50:26.791Z,7.33
2022-10-05T22:52:55.298Z,7.32
2022-10-05T22:55:22.547Z,7.39
2022-10-05T22:57:49.717Z,7.55
2022-10-05T23:00:17.189Z,7.53
2022-10-05T23:03:35.603Z,7.53
2022-10-05T23:06:06.750Z,7.51
2022-10-05T23:08:36.257Z,7.44
2022-10-05T23:11:05.247Z,7.61
2022-10-05T23:14:26.667Z,7.62
2022-10-05T23:16:53.849Z,7.58
2022-10-05T23:19:22.740Z,7.57
2022-10-05T23:21:50.044Z,7.68
2022-10-05T23:24:19.213Z,7.70
2022-10-05T23:26:47.492Z,7.62
2022-10-05T23:29:14.751Z,7.58
2022-10-05T23:31:42.513Z,7.59
2022-10-05T23:34:10.001Z,7.66
2022-10-05T23:36:37.259Z,7.65
2022-10-05T23:39:04.580Z,7.65
2022-10-05T23:41:32.751Z,7.61
2022-10-05T23:44:02.063Z,7.73
2022-10-05T23:46:29.408Z,7.70
2022-10-05T23:48:56.672Z,7.69
2022-10-05T23:51:23.729Z,7.66
2022-10-05T23:54:17.794Z,7.67
2022-10-05T23:56:44.819Z,7.70
2022-10-05T23:59:11.923Z,7.69
